sensor_id;sensor_type;location;lat;lon;timestamp;temperature;humidity
19868;DHT22;10096;51.112;6.776;2022-10-31T00:00:44;15.20;99.90
19868;DHT22;10096;51.112;6.776;2022-10-31T00:03:11;14.90;99.90
19868;DHT22;10096;51.112;6.776;2022-10-31T00:05:41;14.80;99.90
19868;DHT22;10096;51.112;6.776;2022-10-31T00:08:10;14.70;99.90
19868;DHT22;10096;51.112;6.776;2022-10-31T00:10:38;14.50;99.90
19868;DHT22;10096;51.112;6.776;2022-10-31T00:13:05;14.50;99.90
19868;DHT22;10096;51.112;6.776;2022-10-31T00:15:33;14.40;99.90
19868;DHT22;10096;51.112;6.776;2022-10-31T00:18:00;14.30;99.90
19868;DHT22;10096;51.112;6.776;2022-10-31T00:20:31;14.20;99.90
19868;DHT22;10096;51.112;6.776;2022-10-31T00:22:59;14.10;99.90
19868;DHT22;10096;51.112;6.776;2022-10-31T00:25:33;14.10;99.90
19868;DHT22;10096;51.112;6.776;2022-10-31T00:28:00;14.30;99.90
19868;DHT22;10096;51.112;6.776;2022-10-31T00:30:28;14.30;99.90
19868;DHT22;10096;51.112;6.776;2022-10-31T00:32:55;14.00;99.90
19868;DHT22;10096;51.112;6.776;2022-10-31T00:35:22;14.00;99.90
19868;DHT22;10096;51.112;6.776;2022-10-31T00:37:50;13.90;99.90
19868;DHT22;10096;51.112;6.776;2022-10-31T00:40:17;13.90;99.90
19868;DHT22;10096;51.112;6.776;2022-10-31T00:42:46;14.00;1.00
19868;DHT22;10096;51.112;6.776;2022-10-31T00:45:14;14.00;99.90
19868;DHT22;10096;51.112;6.776;2022-10-31T00:47:41;13.90;1.00
19868;DHT22;10096;51.112;6.776;2022-10-31T00:50:08;13.80;1.00
19868;DHT22;10096;51.112;6.776;2022-10-31T00:52:35;13.80;1.00
19868;DHT22;10096;51.112;6.776;2022-10-31T00:55:02;14.20;1.00
19868;DHT22;10096;51.112;6.776;2022-10-31T00:57:29;14.00;1.00
19868;DHT22;10096;51.112;6.776;2022-10-31T00:59:58;14.10;1.00
19868;DHT22;10096;51.112;6.776;2022-10-31T01:02:25;14.60;1.00
19868;DHT22;10096;51.112;6.776;2022-10-31T01:04:53;14.70;1.00
19868;DHT22;10096;51.112;6.776;2022-10-31T01:07:20;14.70;99.90
19868;DHT22;10096;51.112;6.776;2022-10-31T01:09:47;14.70;99.90
19868;DHT22;10096;51.112;6.776;2022-10-31T01:12:14;14.60;1.00
19868;DHT22;10096;51.112;6.776;2022-10-31T01:14:44;14.50;1.00
19868;DHT22;10096;51.112;6.776;2022-10-31T01:17:14;14.60;1.00
19868;DHT22;10096;51.112;6.776;2022-10-31T01:19:43;14.50;1.00
19868;DHT22;10096;51.112;6.776;2022-10-31T01:22:10;14.50;1.00
19868;DHT22;10096;51.112;6.776;2022-10-31T01:24:37;14.40;1.00
19868;DHT22;10096;51.112;6.776;2022-10-31T01:27:04;14.30;1.00
19868;DHT22;10096;51.112;6.776;2022-10-31T01:29:34;14.30;1.00
19868;DHT22;10096;51.112;6.776;2022-10-31T01:32:01;14.30;1.00
19868;DHT22;10096;51.112;6.776;2022-10-31T01:34:30;14.20;1.00
19868;DHT22;10096;51.112;6.776;2022-10-31T01:36:57;14.20;1.00
19868;DHT22;10096;51.112;6.776;2022-10-31T01:39:24;14.20;1.00
19868;DHT22;10096;51.112;6.776;2022-10-31T01:41:52;14.20;1.00
19868;DHT22;10096;51.112;6.776;2022-10-31T01:47:41;14.20;1.00
19868;DHT22;10096;51.112;6.776;2022-10-31T01:50:16;14.20;1.00
19868;DHT22;10096;51.112;6.776;2022-10-31T01:52:47;14.10;1.00
19868;DHT22;10096;51.112;6.776;2022-10-31T01:55:20;14.20;1.00
19868;DHT22;10096;51.112;6.776;2022-10-31T01:57:50;14.20;1.00
19868;DHT22;10096;51.112;6.776;2022-10-31T02:00:20;14.20;1.00
19868;DHT22;10096;51.112;6.776;2022-10-31T02:02:49;14.10;1.00
19868;DHT22;10096;51.112;6.776;2022-10-31T02:05:21;14.00;1.00
19868;DHT22;10096;51.112;6.776;2022-10-31T02:07:55;14.00;1.00
19868;DHT22;10096;51.112;6.776;2022-10-31T02:10:24;14.00;1.00
19868;DHT22;10096;51.112;6.776;2022-10-31T02:12:52;14.00;1.00
19868;DHT22;10096;51.112;6.776;2022-10-31T02:15:20;13.90;1.00
19868;DHT22;10096;51.112;6.776;2022-10-31T02:17:48;13.80;1.00
19868;DHT22;10096;51.112;6.776;2022-10-31T02:20:18;13.90;99.90
19868;DHT22;10096;51.112;6.776;2022-10-31T02:23:13;13.80;62.60
19868;DHT22;10096;51.112;6.776;2022-10-31T02:26:01;13.80;25.40
19868;DHT22;10096;51.112;6.776;2022-10-31T02:28:46;13.80;1.00
19868;DHT22;10096;51.112;6.776;2022-10-31T02:31:27;13.80;1.00
19868;DHT22;10096;51.112;6.776;2022-10-31T02:34:02;13.70;1.00
19868;DHT22;10096;51.112;6.776;2022-10-31T02:36:41;13.70;1.00
19868;DHT22;10096;51.112;6.776;2022-10-31T02:39:18;13.60;99.90
19868;DHT22;10096;51.112;6.776;2022-10-31T02:41:52;13.60;99.90
19868;DHT22;10096;51.112;6.776;2022-10-31T02:44:28;13.70;99.90
19868;DHT22;10096;51.112;6.776;2022-10-31T02:46:59;13.90;1.00
19868;DHT22;10096;51.112;6.776;2022-10-31T02:49:29;13.60;1.00
19868;DHT22;10096;51.112;6.776;2022-10-31T02:51:59;13.80;1.00
19868;DHT22;10096;51.112;6.776;2022-10-31T02:54:28;13.70;1.00
19868;DHT22;10096;51.112;6.776;2022-10-31T02:56:58;13.70;1.00
19868;DHT22;10096;51.112;6.776;2022-10-31T02:59:29;13.50;1.00
19868;DHT22;10096;51.112;6.776;2022-10-31T03:02:18;13.50;1.00
19868;DHT22;10096;51.112;6.776;2022-10-31T03:05:10;13.40;8.50
19868;DHT22;10096;51.112;6.776;2022-10-31T03:07:44;13.50;99.90
19868;DHT22;10096;51.112;6.776;2022-10-31T03:10:20;13.60;99.90
19868;DHT22;10096;51.112;6.776;2022-10-31T03:12:56;13.90;99.90
19868;DHT22;10096;51.112;6.776;2022-10-31T03:15:28;14.10;1.00
19868;DHT22;10096;51.112;6.776;2022-10-31T03:18:01;14.10;1.00
19868;DHT22;10096;51.112;6.776;2022-10-31T03:20:34;13.90;1.00
19868;DHT22;10096;51.112;6.776;2022-10-31T03:23:15;14.00;1.00
19868;DHT22;10096;51.112;6.776;2022-10-31T03:25:43;14.00;1.00
19868;DHT22;10096;51.112;6.776;2022-10-31T03:28:13;13.90;1.00
19868;DHT22;10096;51.112;6.776;2022-10-31T03:30:43;13.80;1.00
19868;DHT22;10096;51.112;6.776;2022-10-31T03:33:16;13.90;1.00
19868;DHT22;10096;51.112;6.776;2022-10-31T03:35:46;13.80;1.00
19868;DHT22;10096;51.112;6.776;2022-10-31T03:38:14;13.70;1.00
19868;DHT22;10096;51.112;6.776;2022-10-31T03:40:43;13.70;1.00
19868;DHT22;10096;51.112;6.776;2022-10-31T03:43:16;13.60;1.00
19868;DHT22;10096;51.112;6.776;2022-10-31T03:45:45;13.60;1.00
19868;DHT22;10096;51.112;6.776;2022-10-31T03:48:16;13.70;19.80
19868;DHT22;10096;51.112;6.776;2022-10-31T03:50:56;13.80;1.00
19868;DHT22;10096;51.112;6.776;2022-10-31T03:53:28;13.90;1.00
19868;DHT22;10096;51.112;6.776;2022-10-31T03:56:00;13.80;1.00
19868;DHT22;10096;51.112;6.776;2022-10-31T03:58:35;13.80;1.00
19868;DHT22;10096;51.112;6.776;2022-10-31T04:01:12;13.80;1.00
19868;DHT22;10096;51.112;6.776;2022-10-31T04:03:42;13.80;1.00
19868;DHT22;10096;51.112;6.776;2022-10-31T04:06:12;14.00;12.70
19868;DHT22;10096;51.112;6.776;2022-10-31T04:09:03;13.80;1.00
19868;DHT22;10096;51.112;6.776;2022-10-31T04:11:43;14.00;1.00
19868;DHT22;10096;51.112;6.776;2022-10-31T04:14:18;14.10;1.00
19868;DHT22;10096;51.112;6.776;2022-10-31T04:16:49;14.00;1.00
19868;DHT22;10096;51.112;6.776;2022-10-31T04:19:24;13.70;1.00
19868;DHT22;10096;51.112;6.776;2022-10-31T04:22:15;13.70;99.90
19868;DHT22;10096;51.112;6.776;2022-10-31T04:24:48;13.70;99.90
19868;DHT22;10096;51.112;6.776;2022-10-31T04:27:34;13.80;99.90
19868;DHT22;10096;51.112;6.776;2022-10-31T04:30:15;13.90;2.10
19868;DHT22;10096;51.112;6.776;2022-10-31T04:32:56;13.80;1.00
19868;DHT22;10096;51.112;6.776;2022-10-31T04:35:27;13.90;99.90
19868;DHT22;10096;51.112;6.776;2022-10-31T04:37:54;14.00;96.70
19868;DHT22;10096;51.112;6.776;2022-10-31T04:40:36;13.60;1.00
19868;DHT22;10096;51.112;6.776;2022-10-31T04:43:03;13.60;1.00
19868;DHT22;10096;51.112;6.776;2022-10-31T04:45:30;13.70;37.80
19868;DHT22;10096;51.112;6.776;2022-10-31T04:47:59;13.80;10.50
19868;DHT22;10096;51.112;6.776;2022-10-31T04:50:27;13.70;1.00
19868;DHT22;10096;51.112;6.776;2022-10-31T04:53:00;13.80;1.00
19868;DHT22;10096;51.112;6.776;2022-10-31T04:55:28;13.50;1.00
19868;DHT22;10096;51.112;6.776;2022-10-31T04:57:55;13.60;1.00
19868;DHT22;10096;51.112;6.776;2022-10-31T05:00:28;13.70;77.30
19868;DHT22;10096;51.112;6.776;2022-10-31T05:02:57;13.60;99.90
19868;DHT22;10096;51.112;6.776;2022-10-31T05:08:22;13.60;1.00
19868;DHT22;10096;51.112;6.776;2022-10-31T05:10:52;13.50;1.00
19868;DHT22;10096;51.112;6.776;2022-10-31T05:13:27;13.60;2.90
19868;DHT22;10096;51.112;6.776;2022-10-31T05:16:08;13.60;75.30
19868;DHT22;10096;51.112;6.776;2022-10-31T05:18:37;13.40;11.60
19868;DHT22;10096;51.112;6.776;2022-10-31T05:21:04;13.40;1.00
19868;DHT22;10096;51.112;6.776;2022-10-31T05:23:42;13.30;1.00
19868;DHT22;10096;51.112;6.776;2022-10-31T05:26:30;13.20;1.00
19868;DHT22;10096;51.112;6.776;2022-10-31T05:28:57;13.20;32.50
19868;DHT22;10096;51.112;6.776;2022-10-31T05:31:25;12.90;99.90
19868;DHT22;10096;51.112;6.776;2022-10-31T05:33:52;12.80;1.00
19868;DHT22;10096;51.112;6.776;2022-10-31T05:36:19;12.80;1.00
19868;DHT22;10096;51.112;6.776;2022-10-31T05:41:51;13.00;99.90
19868;DHT22;10096;51.112;6.776;2022-10-31T05:44:18;13.10;99.90
19868;DHT22;10096;51.112;6.776;2022-10-31T05:46:48;13.20;99.90
19868;DHT22;10096;51.112;6.776;2022-10-31T05:49:21;13.20;99.90
19868;DHT22;10096;51.112;6.776;2022-10-31T05:51:50;13.10;99.90
19868;DHT22;10096;51.112;6.776;2022-10-31T05:54:26;13.10;99.90
19868;DHT22;10096;51.112;6.776;2022-10-31T05:56:56;13.20;99.90
19868;DHT22;10096;51.112;6.776;2022-10-31T05:59:26;12.80;99.90
19868;DHT22;10096;51.112;6.776;2022-10-31T06:01:53;13.10;99.90
19868;DHT22;10096;51.112;6.776;2022-10-31T06:04:20;13.10;99.90
19868;DHT22;10096;51.112;6.776;2022-10-31T06:06:58;13.20;99.90
19868;DHT22;10096;51.112;6.776;2022-10-31T06:09:46;13.40;99.90
19868;DHT22;10096;51.112;6.776;2022-10-31T06:12:21;13.20;99.90
19868;DHT22;10096;51.112;6.776;2022-10-31T06:15:02;13.00;99.90
19868;DHT22;10096;51.112;6.776;2022-10-31T06:18:13;13.30;99.90
19868;DHT22;10096;51.112;6.776;2022-10-31T06:20:54;13.40;99.00
19868;DHT22;10096;51.112;6.776;2022-10-31T06:23:23;13.00;89.70
19868;DHT22;10096;51.112;6.776;2022-10-31T06:25:50;13.20;3.20
19868;DHT22;10096;51.112;6.776;2022-10-31T06:28:19;13.20;1.00
19868;DHT22;10096;51.112;6.776;2022-10-31T06:30:46;13.30;1.00
19868;DHT22;10096;51.112;6.776;2022-10-31T06:33:14;13.10;1.00
19868;DHT22;10096;51.112;6.776;2022-10-31T06:35:45;13.10;1.00
19868;DHT22;10096;51.112;6.776;2022-10-31T06:38:13;13.00;1.00
19868;DHT22;10096;51.112;6.776;2022-10-31T06:40:43;12.90;2.50
19868;DHT22;10096;51.112;6.776;2022-10-31T06:43:10;13.20;1.00
19868;DHT22;10096;51.112;6.776;2022-10-31T06:45:42;13.00;1.00
19868;DHT22;10096;51.112;6.776;2022-10-31T06:48:09;13.00;1.00
19868;DHT22;10096;51.112;6.776;2022-10-31T06:50:37;13.20;1.00
19868;DHT22;10096;51.112;6.776;2022-10-31T06:53:08;13.30;1.00
19868;DHT22;10096;51.112;6.776;2022-10-31T06:55:37;13.10;1.00
19868;DHT22;10096;51.112;6.776;2022-10-31T06:58:04;13.20;11.70
19868;DHT22;10096;51.112;6.776;2022-10-31T07:00:32;13.20;1.00
19868;DHT22;10096;51.112;6.776;2022-10-31T07:03:03;13.40;1.00
19868;DHT22;10096;51.112;6.776;2022-10-31T07:05:31;13.40;1.00
19868;DHT22;10096;51.112;6.776;2022-10-31T07:07:59;13.50;1.00
19868;DHT22;10096;51.112;6.776;2022-10-31T07:10:28;13.50;1.00
19868;DHT22;10096;51.112;6.776;2022-10-31T07:12:59;13.80;1.00
19868;DHT22;10096;51.112;6.776;2022-10-31T07:15:28;13.70;1.00
19868;DHT22;10096;51.112;6.776;2022-10-31T07:18:02;13.70;1.00
19868;DHT22;10096;51.112;6.776;2022-10-31T07:20:31;13.80;1.00
19868;DHT22;10096;51.112;6.776;2022-10-31T07:23:01;13.80;1.00
19868;DHT22;10096;51.112;6.776;2022-10-31T07:25:30;13.90;1.00
19868;DHT22;10096;51.112;6.776;2022-10-31T07:28:01;14.10;1.00
19868;DHT22;10096;51.112;6.776;2022-10-31T07:30:28;13.90;1.00
19868;DHT22;10096;51.112;6.776;2022-10-31T07:32:55;13.90;1.00
19868;DHT22;10096;51.112;6.776;2022-10-31T07:35:26;13.80;1.00
19868;DHT22;10096;51.112;6.776;2022-10-31T07:37:56;13.90;1.00
19868;DHT22;10096;51.112;6.776;2022-10-31T07:40:24;14.00;1.00
19868;DHT22;10096;51.112;6.776;2022-10-31T07:42:52;14.00;1.00
19868;DHT22;10096;51.112;6.776;2022-10-31T07:45:20;14.00;99.90
19868;DHT22;10096;51.112;6.776;2022-10-31T07:47:59;14.20;1.00
19868;DHT22;10096;51.112;6.776;2022-10-31T07:50:38;14.00;99.90
19868;DHT22;10096;51.112;6.776;2022-10-31T07:53:10;14.20;99.90
19868;DHT22;10096;51.112;6.776;2022-10-31T07:55:38;14.30;99.90
19868;DHT22;10096;51.112;6.776;2022-10-31T07:58:07;14.30;99.90
19868;DHT22;10096;51.112;6.776;2022-10-31T08:00:35;14.30;99.90
19868;DHT22;10096;51.112;6.776;2022-10-31T08:03:04;14.50;99.90
19868;DHT22;10096;51.112;6.776;2022-10-31T08:08:19;14.50;99.90
19868;DHT22;10096;51.112;6.776;2022-10-31T08:10:46;14.90;99.90
19868;DHT22;10096;51.112;6.776;2022-10-31T08:13:14;15.10;99.90
19868;DHT22;10096;51.112;6.776;2022-10-31T08:15:42;15.00;99.90
19868;DHT22;10096;51.112;6.776;2022-10-31T08:18:18;15.20;99.90
19868;DHT22;10096;51.112;6.776;2022-10-31T08:20:49;15.00;99.90
19868;DHT22;10096;51.112;6.776;2022-10-31T08:23:18;15.00;99.90
19868;DHT22;10096;51.112;6.776;2022-10-31T08:25:48;15.20;99.90
19868;DHT22;10096;51.112;6.776;2022-10-31T08:28:15;15.30;99.90
19868;DHT22;10096;51.112;6.776;2022-10-31T08:30:43;15.30;99.90
19868;DHT22;10096;51.112;6.776;2022-10-31T08:33:12;15.60;99.90
19868;DHT22;10096;51.112;6.776;2022-10-31T08:35:42;15.50;99.90
19868;DHT22;10096;51.112;6.776;2022-10-31T08:38:11;15.50;99.90
19868;DHT22;10096;51.112;6.776;2022-10-31T08:40:41;15.60;99.90
19868;DHT22;10096;51.112;6.776;2022-10-31T08:43:12;15.50;99.90
19868;DHT22;10096;51.112;6.776;2022-10-31T08:45:39;15.60;99.90
19868;DHT22;10096;51.112;6.776;2022-10-31T08:48:09;15.30;99.90
19868;DHT22;10096;51.112;6.776;2022-10-31T08:50:37;15.30;99.90
19868;DHT22;10096;51.112;6.776;2022-10-31T08:53:07;15.40;99.90
19868;DHT22;10096;51.112;6.776;2022-10-31T08:55:36;15.50;99.90
19868;DHT22;10096;51.112;6.776;2022-10-31T08:58:06;15.70;99.90
19868;DHT22;10096;51.112;6.776;2022-10-31T09:00:34;15.60;81.00
19868;DHT22;10096;51.112;6.776;2022-10-31T09:03:03;15.70;48.60
19868;DHT22;10096;51.112;6.776;2022-10-31T09:05:32;15.80;53.40
19868;DHT22;10096;51.112;6.776;2022-10-31T09:08:01;16.10;38.40
19868;DHT22;10096;51.112;6.776;2022-10-31T09:10:31;16.10;36.30
19868;DHT22;10096;51.112;6.776;2022-10-31T09:13:00;16.10;40.90
19868;DHT22;10096;51.112;6.776;2022-10-31T09:15:36;16.00;5.80
19868;DHT22;10096;51.112;6.776;2022-10-31T09:18:07;16.10;1.00
19868;DHT22;10096;51.112;6.776;2022-10-31T09:20:39;16.10;1.00
19868;DHT22;10096;51.112;6.776;2022-10-31T09:23:08;16.40;1.00
19868;DHT22;10096;51.112;6.776;2022-10-31T09:25:36;16.20;1.00
19868;DHT22;10096;51.112;6.776;2022-10-31T09:28:05;16.30;1.00
19868;DHT22;10096;51.112;6.776;2022-10-31T09:30:37;16.30;1.00
19868;DHT22;10096;51.112;6.776;2022-10-31T09:33:08;16.40;1.00
19868;DHT22;10096;51.112;6.776;2022-10-31T09:35:38;16.60;1.00
19868;DHT22;10096;51.112;6.776;2022-10-31T09:38:08;16.60;1.00
19868;DHT22;10096;51.112;6.776;2022-10-31T09:40:36;16.50;1.00
19868;DHT22;10096;51.112;6.776;2022-10-31T09:43:13;16.60;1.00
19868;DHT22;10096;51.112;6.776;2022-10-31T09:45:54;16.90;1.00
19868;DHT22;10096;51.112;6.776;2022-10-31T09:48:31;16.80;1.00
19868;DHT22;10096;51.112;6.776;2022-10-31T09:51:05;16.60;1.00
19868;DHT22;10096;51.112;6.776;2022-10-31T09:53:37;17.00;1.00
19868;DHT22;10096;51.112;6.776;2022-10-31T09:56:08;17.10;1.00
19868;DHT22;10096;51.112;6.776;2022-10-31T09:58:41;17.30;1.00
19868;DHT22;10096;51.112;6.776;2022-10-31T10:01:25;17.40;1.00
19868;DHT22;10096;51.112;6.776;2022-10-31T10:03:59;17.30;1.00
19868;DHT22;10096;51.112;6.776;2022-10-31T10:06:34;17.30;1.00
19868;DHT22;10096;51.112;6.776;2022-10-31T10:09:03;17.30;1.00
19868;DHT22;10096;51.112;6.776;2022-10-31T10:11:39;17.30;1.00
19868;DHT22;10096;51.112;6.776;2022-10-31T10:14:26;17.40;1.00
19868;DHT22;10096;51.112;6.776;2022-10-31T10:17:20;17.30;1.00
19868;DHT22;10096;51.112;6.776;2022-10-31T10:20:09;17.40;1.00
19868;DHT22;10096;51.112;6.776;2022-10-31T10:23:02;17.20;1.00
19868;DHT22;10096;51.112;6.776;2022-10-31T10:25:40;17.50;1.00
19868;DHT22;10096;51.112;6.776;2022-10-31T10:28:19;17.50;1.00
19868;DHT22;10096;51.112;6.776;2022-10-31T10:30:50;17.50;1.00
19868;DHT22;10096;51.112;6.776;2022-10-31T10:33:27;17.60;1.00
19868;DHT22;10096;51.112;6.776;2022-10-31T10:36:20;17.60;1.00
19868;DHT22;10096;51.112;6.776;2022-10-31T10:39:04;17.70;1.00
19868;DHT22;10096;51.112;6.776;2022-10-31T10:41:35;17.70;1.00
19868;DHT22;10096;51.112;6.776;2022-10-31T10:44:07;17.70;1.00
19868;DHT22;10096;51.112;6.776;2022-10-31T10:46:40;17.80;1.00
19868;DHT22;10096;51.112;6.776;2022-10-31T10:49:32;18.00;1.00
19868;DHT22;10096;51.112;6.776;2022-10-31T10:52:10;17.90;1.00
19868;DHT22;10096;51.112;6.776;2022-10-31T10:54:49;17.90;1.00
19868;DHT22;10096;51.112;6.776;2022-10-31T10:57:49;18.00;1.00
19868;DHT22;10096;51.112;6.776;2022-10-31T11:00:23;18.00;1.00
19868;DHT22;10096;51.112;6.776;2022-10-31T11:02:51;17.90;1.00
19868;DHT22;10096;51.112;6.776;2022-10-31T11:05:33;18.10;1.00
19868;DHT22;10096;51.112;6.776;2022-10-31T11:08:08;18.30;1.00
19868;DHT22;10096;51.112;6.776;2022-10-31T11:10:37;18.40;1.00
19868;DHT22;10096;51.112;6.776;2022-10-31T11:13:21;18.70;1.00
19868;DHT22;10096;51.112;6.776;2022-10-31T11:15:53;18.80;1.00
19868;DHT22;10096;51.112;6.776;2022-10-31T11:18:22;18.70;1.00
19868;DHT22;10096;51.112;6.776;2022-10-31T11:21:19;18.80;1.00
19868;DHT22;10096;51.112;6.776;2022-10-31T11:24:08;18.60;1.00
19868;DHT22;10096;51.112;6.776;2022-10-31T11:26:51;18.80;1.00
19868;DHT22;10096;51.112;6.776;2022-10-31T11:29:29;18.90;1.00
19868;DHT22;10096;51.112;6.776;2022-10-31T11:32:03;19.00;1.00
19868;DHT22;10096;51.112;6.776;2022-10-31T11:34:31;19.20;1.00
19868;DHT22;10096;51.112;6.776;2022-10-31T11:37:09;19.10;1.00
19868;DHT22;10096;51.112;6.776;2022-10-31T11:39:41;19.10;1.00
19868;DHT22;10096;51.112;6.776;2022-10-31T11:42:12;19.10;1.00
19868;DHT22;10096;51.112;6.776;2022-10-31T11:44:42;19.00;1.00
19868;DHT22;10096;51.112;6.776;2022-10-31T11:47:14;19.20;1.00
19868;DHT22;10096;51.112;6.776;2022-10-31T11:49:44;19.30;1.00
19868;DHT22;10096;51.112;6.776;2022-10-31T11:52:19;19.30;1.00
19868;DHT22;10096;51.112;6.776;2022-10-31T11:54:48;19.40;1.00
19868;DHT22;10096;51.112;6.776;2022-10-31T11:57:29;19.40;1.00
19868;DHT22;10096;51.112;6.776;2022-10-31T11:59:59;19.60;1.00
19868;DHT22;10096;51.112;6.776;2022-10-31T12:02:29;19.60;1.00
19868;DHT22;10096;51.112;6.776;2022-10-31T12:05:02;19.40;1.00
19868;DHT22;10096;51.112;6.776;2022-10-31T12:07:31;19.50;1.00
19868;DHT22;10096;51.112;6.776;2022-10-31T12:10:02;19.60;1.00
19868;DHT22;10096;51.112;6.776;2022-10-31T12:12:47;19.50;1.00
19868;DHT22;10096;51.112;6.776;2022-10-31T12:15:36;19.70;1.00
19868;DHT22;10096;51.112;6.776;2022-10-31T12:21:24;19.80;1.00
19868;DHT22;10096;51.112;6.776;2022-10-31T12:24:12;19.80;1.00
19868;DHT22;10096;51.112;6.776;2022-10-31T12:26:53;19.80;1.00
19868;DHT22;10096;51.112;6.776;2022-10-31T12:29:45;19.80;1.00
19868;DHT22;10096;51.112;6.776;2022-10-31T12:32:25;19.50;1.00
19868;DHT22;10096;51.112;6.776;2022-10-31T12:35:21;19.70;1.00
19868;DHT22;10096;51.112;6.776;2022-10-31T12:38:03;19.50;1.00
19868;DHT22;10096;51.112;6.776;2022-10-31T12:40:46;19.50;1.00
19868;DHT22;10096;51.112;6.776;2022-10-31T12:43:26;19.40;1.00
19868;DHT22;10096;51.112;6.776;2022-10-31T12:45:56;19.40;1.00
19868;DHT22;10096;51.112;6.776;2022-10-31T12:49:10;19.40;1.00
19868;DHT22;10096;51.112;6.776;2022-10-31T12:51:49;19.40;1.00
19868;DHT22;10096;51.112;6.776;2022-10-31T12:54:43;19.30;1.00
19868;DHT22;10096;51.112;6.776;2022-10-31T12:57:23;19.40;1.00
19868;DHT22;10096;51.112;6.776;2022-10-31T13:00:02;19.30;1.00
19868;DHT22;10096;51.112;6.776;2022-10-31T13:02:39;19.60;1.00
19868;DHT22;10096;51.112;6.776;2022-10-31T13:05:16;19.50;1.00
19868;DHT22;10096;51.112;6.776;2022-10-31T13:08:07;19.40;1.00
19868;DHT22;10096;51.112;6.776;2022-10-31T13:10:52;19.60;1.00
19868;DHT22;10096;51.112;6.776;2022-10-31T13:13:30;19.70;1.00
19868;DHT22;10096;51.112;6.776;2022-10-31T13:16:02;19.40;1.00
19868;DHT22;10096;51.112;6.776;2022-10-31T13:18:33;19.50;1.00
19868;DHT22;10096;51.112;6.776;2022-10-31T13:24:14;19.60;1.00
19868;DHT22;10096;51.112;6.776;2022-10-31T13:26:54;19.60;1.00
19868;DHT22;10096;51.112;6.776;2022-10-31T13:29:30;19.70;1.00
19868;DHT22;10096;51.112;6.776;2022-10-31T13:34:31;19.70;1.00
19868;DHT22;10096;51.112;6.776;2022-10-31T13:35:37;19.80;1.00
19868;DHT22;10096;51.112;6.776;2022-10-31T13:38:14;19.80;1.00
19868;DHT22;10096;51.112;6.776;2022-10-31T13:40:50;19.80;1.00
19868;DHT22;10096;51.112;6.776;2022-10-31T13:43:25;19.80;1.00
19868;DHT22;10096;51.112;6.776;2022-10-31T13:45:55;20.00;1.00
19868;DHT22;10096;51.112;6.776;2022-10-31T13:48:39;19.90;1.00
19868;DHT22;10096;51.112;6.776;2022-10-31T13:51:09;19.80;1.00
19868;DHT22;10096;51.112;6.776;2022-10-31T13:53:44;19.80;1.00
19868;DHT22;10096;51.112;6.776;2022-10-31T13:56:23;19.80;1.00
19868;DHT22;10096;51.112;6.776;2022-10-31T13:59:03;19.50;1.00
19868;DHT22;10096;51.112;6.776;2022-10-31T14:01:33;20.00;1.00
19868;DHT22;10096;51.112;6.776;2022-10-31T14:04:03;19.70;1.00
19868;DHT22;10096;51.112;6.776;2022-10-31T14:06:37;19.70;1.00
19868;DHT22;10096;51.112;6.776;2022-10-31T14:09:05;19.60;1.00
19868;DHT22;10096;51.112;6.776;2022-10-31T14:11:33;19.80;1.00
19868;DHT22;10096;51.112;6.776;2022-10-31T14:14:01;19.80;1.00
19868;DHT22;10096;51.112;6.776;2022-10-31T14:16:30;20.00;1.00
19868;DHT22;10096;51.112;6.776;2022-10-31T14:19:03;19.80;1.00
19868;DHT22;10096;51.112;6.776;2022-10-31T14:21:43;19.90;1.00
19868;DHT22;10096;51.112;6.776;2022-10-31T14:24:15;19.90;1.00
19868;DHT22;10096;51.112;6.776;2022-10-31T14:26:52;19.90;1.00
19868;DHT22;10096;51.112;6.776;2022-10-31T14:29:26;19.90;1.00
19868;DHT22;10096;51.112;6.776;2022-10-31T14:32:11;19.80;1.00
19868;DHT22;10096;51.112;6.776;2022-10-31T14:34:43;19.80;1.00
19868;DHT22;10096;51.112;6.776;2022-10-31T14:37:32;19.80;1.00
19868;DHT22;10096;51.112;6.776;2022-10-31T14:40:20;19.70;1.00
19868;DHT22;10096;51.112;6.776;2022-10-31T14:43:06;19.70;1.00
19868;DHT22;10096;51.112;6.776;2022-10-31T14:45:44;19.70;1.00
19868;DHT22;10096;51.112;6.776;2022-10-31T14:48:31;19.70;1.00
19868;DHT22;10096;51.112;6.776;2022-10-31T14:51:05;19.60;1.00
19868;DHT22;10096;51.112;6.776;2022-10-31T14:53:39;19.60;1.00
19868;DHT22;10096;51.112;6.776;2022-10-31T14:56:10;19.60;1.00
19868;DHT22;10096;51.112;6.776;2022-10-31T14:58:40;19.70;1.00
19868;DHT22;10096;51.112;6.776;2022-10-31T15:01:19;19.50;1.00
19868;DHT22;10096;51.112;6.776;2022-10-31T15:03:48;19.60;1.00
19868;DHT22;10096;51.112;6.776;2022-10-31T15:06:26;19.40;1.00
19868;DHT22;10096;51.112;6.776;2022-10-31T15:09:21;19.70;1.00
19868;DHT22;10096;51.112;6.776;2022-10-31T15:11:53;19.60;1.00
19868;DHT22;10096;51.112;6.776;2022-10-31T15:14:24;19.50;1.00
19868;DHT22;10096;51.112;6.776;2022-10-31T15:16:51;19.50;1.00
19868;DHT22;10096;51.112;6.776;2022-10-31T15:19:30;19.50;1.00
19868;DHT22;10096;51.112;6.776;2022-10-31T15:22:00;19.70;1.00
19868;DHT22;10096;51.112;6.776;2022-10-31T15:24:35;19.40;1.00
19868;DHT22;10096;51.112;6.776;2022-10-31T15:27:12;19.30;1.00
19868;DHT22;10096;51.112;6.776;2022-10-31T15:29:55;19.40;1.00
19868;DHT22;10096;51.112;6.776;2022-10-31T15:32:25;19.30;1.00
19868;DHT22;10096;51.112;6.776;2022-10-31T15:35:09;19.30;1.00
19868;DHT22;10096;51.112;6.776;2022-10-31T15:37:38;19.30;1.00
19868;DHT22;10096;51.112;6.776;2022-10-31T15:40:15;19.20;1.00
19868;DHT22;10096;51.112;6.776;2022-10-31T15:42:43;19.20;1.00
19868;DHT22;10096;51.112;6.776;2022-10-31T15:45:19;19.20;1.00
19868;DHT22;10096;51.112;6.776;2022-10-31T15:48:03;19.20;1.00
19868;DHT22;10096;51.112;6.776;2022-10-31T15:50:44;19.20;1.00
19868;DHT22;10096;51.112;6.776;2022-10-31T15:53:25;19.20;1.00
19868;DHT22;10096;51.112;6.776;2022-10-31T15:56:00;18.90;1.00
19868;DHT22;10096;51.112;6.776;2022-10-31T15:58:30;19.40;1.00
19868;DHT22;10096;51.112;6.776;2022-10-31T16:01:02;19.20;1.00
19868;DHT22;10096;51.112;6.776;2022-10-31T16:03:31;19.20;1.00
19868;DHT22;10096;51.112;6.776;2022-10-31T16:06:00;19.30;1.00
19868;DHT22;10096;51.112;6.776;2022-10-31T16:08:35;19.10;1.00
19868;DHT22;10096;51.112;6.776;2022-10-31T16:11:20;18.90;1.00
19868;DHT22;10096;51.112;6.776;2022-10-31T16:13:57;19.00;1.00
19868;DHT22;10096;51.112;6.776;2022-10-31T16:16:25;18.80;1.00
19868;DHT22;10096;51.112;6.776;2022-10-31T16:18:54;18.70;1.00
19868;DHT22;10096;51.112;6.776;2022-10-31T16:21:30;18.70;1.00
19868;DHT22;10096;51.112;6.776;2022-10-31T16:24:04;18.50;1.00
19868;DHT22;10096;51.112;6.776;2022-10-31T16:26:33;18.60;1.00
19868;DHT22;10096;51.112;6.776;2022-10-31T16:29:02;18.50;1.00
19868;DHT22;10096;51.112;6.776;2022-10-31T16:34:43;18.30;1.00
19868;DHT22;10096;51.112;6.776;2022-10-31T16:37:13;18.70;1.00
19868;DHT22;10096;51.112;6.776;2022-10-31T16:39:42;18.70;1.00
19868;DHT22;10096;51.112;6.776;2022-10-31T16:42:19;18.50;1.00
19868;DHT22;10096;51.112;6.776;2022-10-31T16:44:57;18.40;1.00